Kamey, Texas
Current Conditions -  °F | °C
As of 6:35 PM on Friday 21 Nov 2014 (Local Time) from KPKV Reporting Station
Overcast Overcast  
Wind Chill: 67°   Ceiling: 3800
Heat Index: 67°   Visibility: 10mi
Dew Point: 64°   Wind: 6mph
Humidity: 90%   Direction: 110°ESE
Pressure: 30.06"   Gusts: NA
Location:  28.5342°N, 96.663°W
Report Text: KPKV 220035Z AUTO 11005KT 10SM SCT032 BKN038 OVC070 19/18 A3006 RMK AO2 T01930176
Loading
Personal Weather Stations






























Interactive Weather Map New forecast layout! Learn more

10-Day Weather Forecast

Advertisements
Track Severe Weather on mobile